sensor_id;sensor_type;location;lat;lon;timestamp;P1;durP1;ratioP1;P2;durP2;ratioP2
64459;SDS011;50828;53.756;21.140;2023-04-15T00:02:47;17.00;;;10.70;;
64459;SDS011;50828;53.756;21.140;2023-04-15T00:07:54;16.10;;;10.60;;
64459;SDS011;50828;53.756;21.140;2023-04-15T00:13:02;15.60;;;10.90;;
64459;SDS011;50828;53.756;21.140;2023-04-15T00:18:10;17.30;;;11.30;;
64459;SDS011;50828;53.756;21.140;2023-04-15T00:23:17;16.40;;;11.60;;
64459;SDS011;50828;53.756;21.140;2023-04-15T00:28:25;19.60;;;12.40;;
64459;SDS011;50828;53.756;21.140;2023-04-15T00:33:33;19.70;;;11.90;;
64459;SDS011;50828;53.756;21.140;2023-04-15T00:38:42;17.50;;;11.90;;
64459;SDS011;50828;53.756;21.140;2023-04-15T00:43:49;18.20;;;12.10;;
64459;SDS011;50828;53.756;21.140;2023-04-15T00:54:10;21.10;;;12.80;;
64459;SDS011;50828;53.756;21.140;2023-04-15T00:59:18;21.20;;;13.60;;
64459;SDS011;50828;53.756;21.140;2023-04-15T01:04:26;23.00;;;13.30;;
64459;SDS011;50828;53.756;21.140;2023-04-15T01:09:34;22.50;;;14.30;;
64459;SDS011;50828;53.756;21.140;2023-04-15T01:14:42;26.70;;;14.80;;
64459;SDS011;50828;53.756;21.140;2023-04-15T01:19:50;29.80;;;15.80;;
64459;SDS011;50828;53.756;21.140;2023-04-15T01:25:00;23.40;;;15.50;;
64459;SDS011;50828;53.756;21.140;2023-04-15T01:30:11;22.90;;;15.30;;
64459;SDS011;50828;53.756;21.140;2023-04-15T01:35:18;22.10;;;15.30;;
64459;SDS011;50828;53.756;21.140;2023-04-15T01:40:27;23.10;;;15.40;;
64459;SDS011;50828;53.756;21.140;2023-04-15T01:45:35;23.50;;;14.70;;
64459;SDS011;50828;53.756;21.140;2023-04-15T01:50:43;25.70;;;15.80;;
64459;SDS011;50828;53.756;21.140;2023-04-15T01:55:51;23.10;;;14.30;;
64459;SDS011;50828;53.756;21.140;2023-04-15T02:00:59;22.20;;;14.30;;
64459;SDS011;50828;53.756;21.140;2023-04-15T02:06:07;19.80;;;13.40;;
64459;SDS011;50828;53.756;21.140;2023-04-15T02:11:15;25.30;;;15.10;;
64459;SDS011;50828;53.756;21.140;2023-04-15T02:16:22;25.90;;;14.00;;
64459;SDS011;50828;53.756;21.140;2023-04-15T02:21:31;21.90;;;14.30;;
64459;SDS011;50828;53.756;21.140;2023-04-15T02:26:38;22.40;;;14.70;;
64459;SDS011;50828;53.756;21.140;2023-04-15T02:31:46;19.40;;;13.40;;
64459;SDS011;50828;53.756;21.140;2023-04-15T02:36:56;20.00;;;13.90;;
64459;SDS011;50828;53.756;21.140;2023-04-15T02:42:05;25.40;;;15.50;;
64459;SDS011;50828;53.756;21.140;2023-04-15T02:47:13;25.60;;;15.20;;
64459;SDS011;50828;53.756;21.140;2023-04-15T02:52:21;22.60;;;14.70;;
64459;SDS011;50828;53.756;21.140;2023-04-15T02:57:29;21.40;;;14.30;;
64459;SDS011;50828;53.756;21.140;2023-04-15T03:02:40;21.60;;;14.70;;
64459;SDS011;50828;53.756;21.140;2023-04-15T03:07:50;23.70;;;15.00;;
64459;SDS011;50828;53.756;21.140;2023-04-15T03:12:57;24.20;;;15.30;;
64459;SDS011;50828;53.756;21.140;2023-04-15T03:18:06;26.30;;;15.00;;
64459;SDS011;50828;53.756;21.140;2023-04-15T03:23:16;24.00;;;14.20;;
64459;SDS011;50828;53.756;21.140;2023-04-15T03:28:25;23.20;;;14.40;;
64459;SDS011;50828;53.756;21.140;2023-04-15T03:33:34;27.20;;;14.40;;
64459;SDS011;50828;53.756;21.140;2023-04-15T03:38:41;24.80;;;14.20;;
64459;SDS011;50828;53.756;21.140;2023-04-15T03:43:49;24.10;;;14.00;;
64459;SDS011;50828;53.756;21.140;2023-04-15T03:48:56;22.30;;;13.40;;
64459;SDS011;50828;53.756;21.140;2023-04-15T03:54:04;22.90;;;13.40;;
64459;SDS011;50828;53.756;21.140;2023-04-15T03:59:12;22.50;;;13.40;;
64459;SDS011;50828;53.756;21.140;2023-04-15T04:04:19;24.40;;;13.60;;
64459;SDS011;50828;53.756;21.140;2023-04-15T04:09:27;20.10;;;12.20;;
64459;SDS011;50828;53.756;21.140;2023-04-15T04:14:35;20.80;;;12.70;;
64459;SDS011;50828;53.756;21.140;2023-04-15T04:19:43;20.20;;;12.20;;
64459;SDS011;50828;53.756;21.140;2023-04-15T04:24:51;23.10;;;12.40;;
64459;SDS011;50828;53.756;21.140;2023-04-15T04:29:59;21.20;;;12.10;;
64459;SDS011;50828;53.756;21.140;2023-04-15T04:35:08;18.90;;;11.60;;
64459;SDS011;50828;53.756;21.140;2023-04-15T04:40:15;19.00;;;11.30;;
64459;SDS011;50828;53.756;21.140;2023-04-15T04:45:23;17.10;;;11.20;;
64459;SDS011;50828;53.756;21.140;2023-04-15T04:50:31;22.40;;;12.00;;
64459;SDS011;50828;53.756;21.140;2023-04-15T04:55:38;19.00;;;11.40;;
64459;SDS011;50828;53.756;21.140;2023-04-15T05:00:46;16.00;;;10.70;;
64459;SDS011;50828;53.756;21.140;2023-04-15T05:05:54;17.10;;;11.20;;
64459;SDS011;50828;53.756;21.140;2023-04-15T05:11:01;22.10;;;12.10;;
64459;SDS011;50828;53.756;21.140;2023-04-15T05:16:09;17.30;;;10.90;;
64459;SDS011;50828;53.756;21.140;2023-04-15T05:21:16;18.40;;;10.60;;
64459;SDS011;50828;53.756;21.140;2023-04-15T05:26:24;20.40;;;11.90;;
64459;SDS011;50828;53.756;21.140;2023-04-15T05:31:32;19.60;;;11.50;;
64459;SDS011;50828;53.756;21.140;2023-04-15T05:36:40;22.30;;;11.20;;
64459;SDS011;50828;53.756;21.140;2023-04-15T05:41:47;19.50;;;11.80;;
64459;SDS011;50828;53.756;21.140;2023-04-15T05:46:55;20.80;;;11.30;;
64459;SDS011;50828;53.756;21.140;2023-04-15T05:52:02;18.50;;;11.70;;
64459;SDS011;50828;53.756;21.140;2023-04-15T05:57:09;19.80;;;11.70;;
64459;SDS011;50828;53.756;21.140;2023-04-15T06:02:17;20.80;;;11.20;;
64459;SDS011;50828;53.756;21.140;2023-04-15T06:07:25;19.70;;;11.50;;
64459;SDS011;50828;53.756;21.140;2023-04-15T06:12:32;19.80;;;11.60;;
64459;SDS011;50828;53.756;21.140;2023-04-15T06:17:41;22.50;;;11.80;;
64459;SDS011;50828;53.756;21.140;2023-04-15T06:22:49;20.70;;;11.10;;
64459;SDS011;50828;53.756;21.140;2023-04-15T06:27:56;21.00;;;12.20;;
64459;SDS011;50828;53.756;21.140;2023-04-15T06:33:04;19.30;;;11.00;;
64459;SDS011;50828;53.756;21.140;2023-04-15T06:38:13;19.90;;;12.00;;
64459;SDS011;50828;53.756;21.140;2023-04-15T06:43:21;20.10;;;11.50;;
64459;SDS011;50828;53.756;21.140;2023-04-15T06:48:28;19.70;;;10.40;;
64459;SDS011;50828;53.756;21.140;2023-04-15T06:53:35;23.80;;;13.10;;
64459;SDS011;50828;53.756;21.140;2023-04-15T06:58:44;17.10;;;10.80;;
64459;SDS011;50828;53.756;21.140;2023-04-15T07:03:52;17.50;;;10.50;;
64459;SDS011;50828;53.756;21.140;2023-04-15T07:09:00;18.70;;;10.40;;
64459;SDS011;50828;53.756;21.140;2023-04-15T07:14:08;17.50;;;9.90;;
64459;SDS011;50828;53.756;21.140;2023-04-15T07:19:15;16.70;;;9.50;;
64459;SDS011;50828;53.756;21.140;2023-04-15T07:24:23;15.20;;;9.40;;
64459;SDS011;50828;53.756;21.140;2023-04-15T07:29:30;13.70;;;9.00;;
64459;SDS011;50828;53.756;21.140;2023-04-15T07:34:38;13.30;;;8.00;;
64459;SDS011;50828;53.756;21.140;2023-04-15T07:39:46;16.60;;;8.90;;
64459;SDS011;50828;53.756;21.140;2023-04-15T07:44:53;14.30;;;8.20;;
64459;SDS011;50828;53.756;21.140;2023-04-15T07:50:00;12.70;;;8.30;;
64459;SDS011;50828;53.756;21.140;2023-04-15T07:55:10;13.40;;;7.90;;
64459;SDS011;50828;53.756;21.140;2023-04-15T08:00:20;11.80;;;7.60;;
64459;SDS011;50828;53.756;21.140;2023-04-15T08:05:29;13.50;;;8.20;;
64459;SDS011;50828;53.756;21.140;2023-04-15T08:10:36;12.20;;;7.60;;
64459;SDS011;50828;53.756;21.140;2023-04-15T08:15:44;12.50;;;7.40;;
64459;SDS011;50828;53.756;21.140;2023-04-15T08:20:59;15.90;;;8.30;;
64459;SDS011;50828;53.756;21.140;2023-04-15T08:26:06;13.70;;;8.10;;
64459;SDS011;50828;53.756;21.140;2023-04-15T08:31:14;14.60;;;8.70;;
64459;SDS011;50828;53.756;21.140;2023-04-15T08:36:23;12.80;;;8.40;;
64459;SDS011;50828;53.756;21.140;2023-04-15T08:41:31;17.20;;;9.20;;
64459;SDS011;50828;53.756;21.140;2023-04-15T08:46:44;13.50;;;8.30;;
64459;SDS011;50828;53.756;21.140;2023-04-15T08:51:52;13.60;;;8.20;;
64459;SDS011;50828;53.756;21.140;2023-04-15T08:57:02;14.50;;;8.50;;
64459;SDS011;50828;53.756;21.140;2023-04-15T09:02:10;14.30;;;8.70;;
64459;SDS011;50828;53.756;21.140;2023-04-15T09:07:18;16.50;;;8.10;;
64459;SDS011;50828;53.756;21.140;2023-04-15T09:12:25;18.50;;;9.10;;
64459;SDS011;50828;53.756;21.140;2023-04-15T09:17:33;14.30;;;8.50;;
64459;SDS011;50828;53.756;21.140;2023-04-15T09:22:47;24.20;;;13.10;;
64459;SDS011;50828;53.756;21.140;2023-04-15T09:27:55;16.50;;;9.00;;
64459;SDS011;50828;53.756;21.140;2023-04-15T09:33:03;15.50;;;8.70;;
64459;SDS011;50828;53.756;21.140;2023-04-15T09:38:13;14.50;;;8.50;;
64459;SDS011;50828;53.756;21.140;2023-04-15T09:43:21;14.50;;;8.40;;
64459;SDS011;50828;53.756;21.140;2023-04-15T09:48:41;13.20;;;8.60;;
64459;SDS011;50828;53.756;21.140;2023-04-15T09:53:49;17.30;;;8.80;;
64459;SDS011;50828;53.756;21.140;2023-04-15T09:59:00;13.50;;;8.20;;
64459;SDS011;50828;53.756;21.140;2023-04-15T10:04:09;18.80;;;9.20;;
64459;SDS011;50828;53.756;21.140;2023-04-15T10:09:17;14.00;;;8.60;;
64459;SDS011;50828;53.756;21.140;2023-04-15T10:14:25;14.40;;;8.40;;
64459;SDS011;50828;53.756;21.140;2023-04-15T10:19:37;13.70;;;8.90;;
64459;SDS011;50828;53.756;21.140;2023-04-15T10:24:44;15.30;;;9.10;;
64459;SDS011;50828;53.756;21.140;2023-04-15T10:29:53;12.50;;;7.60;;
64459;SDS011;50828;53.756;21.140;2023-04-15T10:35:01;11.70;;;7.60;;
64459;SDS011;50828;53.756;21.140;2023-04-15T10:40:24;11.30;;;7.60;;
64459;SDS011;50828;53.756;21.140;2023-04-15T10:45:34;13.30;;;7.50;;
64459;SDS011;50828;53.756;21.140;2023-04-15T10:50:42;13.10;;;8.10;;
64459;SDS011;50828;53.756;21.140;2023-04-15T10:56:02;13.50;;;7.40;;
64459;SDS011;50828;53.756;21.140;2023-04-15T11:01:13;14.10;;;7.90;;
64459;SDS011;50828;53.756;21.140;2023-04-15T11:06:21;10.90;;;6.60;;
64459;SDS011;50828;53.756;21.140;2023-04-15T11:12:07;18.60;;;9.00;;
64459;SDS011;50828;53.756;21.140;2023-04-15T11:17:14;16.20;;;7.80;;
64459;SDS011;50828;53.756;21.140;2023-04-15T11:22:34;12.10;;;7.80;;
64459;SDS011;50828;53.756;21.140;2023-04-15T11:27:41;10.50;;;7.00;;
64459;SDS011;50828;53.756;21.140;2023-04-15T11:32:49;12.80;;;7.60;;
64459;SDS011;50828;53.756;21.140;2023-04-15T11:37:57;11.70;;;7.90;;
64459;SDS011;50828;53.756;21.140;2023-04-15T11:43:07;14.20;;;7.60;;
64459;SDS011;50828;53.756;21.140;2023-04-15T11:48:16;16.80;;;7.90;;
64459;SDS011;50828;53.756;21.140;2023-04-15T11:53:25;11.10;;;6.80;;
64459;SDS011;50828;53.756;21.140;2023-04-15T11:58:53;10.60;;;6.30;;
64459;SDS011;50828;53.756;21.140;2023-04-15T12:04:04;8.10;;;5.90;;
64459;SDS011;50828;53.756;21.140;2023-04-15T12:09:20;12.60;;;6.20;;
64459;SDS011;50828;53.756;21.140;2023-04-15T12:14:28;16.20;;;5.90;;
64459;SDS011;50828;53.756;21.140;2023-04-15T12:19:36;8.60;;;5.40;;
64459;SDS011;50828;53.756;21.140;2023-04-15T12:24:45;9.10;;;5.10;;
64459;SDS011;50828;53.756;21.140;2023-04-15T12:30:04;7.00;;;4.80;;
64459;SDS011;50828;53.756;21.140;2023-04-15T12:35:14;8.00;;;5.20;;
64459;SDS011;50828;53.756;21.140;2023-04-15T12:40:24;9.40;;;5.40;;
64459;SDS011;50828;53.756;21.140;2023-04-15T12:45:32;10.10;;;5.20;;
64459;SDS011;50828;53.756;21.140;2023-04-15T12:50:39;6.40;;;4.90;;
64459;SDS011;50828;53.756;21.140;2023-04-15T12:55:46;11.70;;;5.30;;
64459;SDS011;50828;53.756;21.140;2023-04-15T13:00:54;9.70;;;6.20;;
64459;SDS011;50828;53.756;21.140;2023-04-15T13:06:03;7.00;;;5.40;;
64459;SDS011;50828;53.756;21.140;2023-04-15T13:11:11;10.90;;;5.90;;
64459;SDS011;50828;53.756;21.140;2023-04-15T13:16:19;7.60;;;4.70;;
64459;SDS011;50828;53.756;21.140;2023-04-15T13:21:31;6.80;;;4.90;;
64459;SDS011;50828;53.756;21.140;2023-04-15T13:26:39;8.80;;;5.90;;
64459;SDS011;50828;53.756;21.140;2023-04-15T13:31:47;9.90;;;6.50;;
64459;SDS011;50828;53.756;21.140;2023-04-15T13:36:55;9.40;;;6.10;;
64459;SDS011;50828;53.756;21.140;2023-04-15T13:42:02;8.50;;;5.40;;
64459;SDS011;50828;53.756;21.140;2023-04-15T13:47:10;9.90;;;5.90;;
64459;SDS011;50828;53.756;21.140;2023-04-15T13:52:18;10.60;;;6.60;;
64459;SDS011;50828;53.756;21.140;2023-04-15T13:57:26;18.20;;;11.10;;
64459;SDS011;50828;53.756;21.140;2023-04-15T14:02:33;14.60;;;8.80;;
64459;SDS011;50828;53.756;21.140;2023-04-15T14:07:41;12.50;;;7.40;;
64459;SDS011;50828;53.756;21.140;2023-04-15T14:12:49;10.00;;;6.50;;
64459;SDS011;50828;53.756;21.140;2023-04-15T14:17:57;8.50;;;5.50;;
64459;SDS011;50828;53.756;21.140;2023-04-15T14:23:05;10.10;;;6.10;;
64459;SDS011;50828;53.756;21.140;2023-04-15T14:28:13;9.40;;;5.90;;
64459;SDS011;50828;53.756;21.140;2023-04-15T14:33:21;8.50;;;6.00;;
64459;SDS011;50828;53.756;21.140;2023-04-15T14:38:29;10.10;;;7.40;;
64459;SDS011;50828;53.756;21.140;2023-04-15T14:43:41;10.00;;;5.90;;
64459;SDS011;50828;53.756;21.140;2023-04-15T14:48:49;9.80;;;6.10;;
64459;SDS011;50828;53.756;21.140;2023-04-15T14:53:57;8.00;;;5.00;;
64459;SDS011;50828;53.756;21.140;2023-04-15T14:59:05;8.90;;;6.20;;
64459;SDS011;50828;53.756;21.140;2023-04-15T15:04:13;11.90;;;7.30;;
64459;SDS011;50828;53.756;21.140;2023-04-15T15:09:22;11.30;;;6.70;;
64459;SDS011;50828;53.756;21.140;2023-04-15T15:14:29;25.70;;;8.50;;
64459;SDS011;50828;53.756;21.140;2023-04-15T15:19:38;11.90;;;7.30;;
64459;SDS011;50828;53.756;21.140;2023-04-15T15:24:47;9.10;;;5.90;;
64459;SDS011;50828;53.756;21.140;2023-04-15T15:29:57;14.30;;;7.00;;
64459;SDS011;50828;53.756;21.140;2023-04-15T15:35:05;11.70;;;7.10;;
64459;SDS011;50828;53.756;21.140;2023-04-15T15:40:16;11.10;;;6.80;;
64459;SDS011;50828;53.756;21.140;2023-04-15T15:45:23;11.50;;;7.60;;
64459;SDS011;50828;53.756;21.140;2023-04-15T15:50:32;11.60;;;7.30;;
64459;SDS011;50828;53.756;21.140;2023-04-15T15:55:41;13.40;;;8.00;;
64459;SDS011;50828;53.756;21.140;2023-04-15T16:00:50;10.30;;;6.90;;
64459;SDS011;50828;53.756;21.140;2023-04-15T16:05:59;12.20;;;7.70;;
64459;SDS011;50828;53.756;21.140;2023-04-15T16:11:08;11.10;;;6.90;;
64459;SDS011;50828;53.756;21.140;2023-04-15T16:16:16;10.50;;;7.00;;
64459;SDS011;50828;53.756;21.140;2023-04-15T16:21:25;13.00;;;7.50;;
64459;SDS011;50828;53.756;21.140;2023-04-15T16:26:32;11.70;;;8.10;;
64459;SDS011;50828;53.756;21.140;2023-04-15T16:31:41;15.20;;;8.60;;
64459;SDS011;50828;53.756;21.140;2023-04-15T16:36:48;16.40;;;8.80;;
64459;SDS011;50828;53.756;21.140;2023-04-15T16:41:56;14.00;;;7.20;;
64459;SDS011;50828;53.756;21.140;2023-04-15T16:47:05;10.90;;;6.00;;
64459;SDS011;50828;53.756;21.140;2023-04-15T16:52:15;10.10;;;5.50;;
64459;SDS011;50828;53.756;21.140;2023-04-15T16:57:23;12.40;;;6.10;;
64459;SDS011;50828;53.756;21.140;2023-04-15T17:02:51;13.90;;;6.50;;
64459;SDS011;50828;53.756;21.140;2023-04-15T17:08:01;13.60;;;7.90;;
64459;SDS011;50828;53.756;21.140;2023-04-15T17:13:08;9.70;;;5.90;;
64459;SDS011;50828;53.756;21.140;2023-04-15T17:18:17;10.80;;;6.10;;
64459;SDS011;50828;53.756;21.140;2023-04-15T17:23:25;8.00;;;5.00;;
64459;SDS011;50828;53.756;21.140;2023-04-15T17:28:33;8.70;;;5.40;;
64459;SDS011;50828;53.756;21.140;2023-04-15T17:33:42;9.70;;;5.80;;
64459;SDS011;50828;53.756;21.140;2023-04-15T17:39:09;13.10;;;7.60;;
64459;SDS011;50828;53.756;21.140;2023-04-15T17:44:18;14.40;;;8.00;;
64459;SDS011;50828;53.756;21.140;2023-04-15T17:49:29;12.60;;;7.40;;
64459;SDS011;50828;53.756;21.140;2023-04-15T17:54:37;12.80;;;6.70;;
64459;SDS011;50828;53.756;21.140;2023-04-15T17:59:46;8.70;;;5.60;;
64459;SDS011;50828;53.756;21.140;2023-04-15T18:04:54;10.60;;;6.20;;
64459;SDS011;50828;53.756;21.140;2023-04-15T18:10:01;10.90;;;5.60;;
64459;SDS011;50828;53.756;21.140;2023-04-15T18:15:12;10.30;;;5.40;;
64459;SDS011;50828;53.756;21.140;2023-04-15T18:20:21;12.10;;;6.80;;
64459;SDS011;50828;53.756;21.140;2023-04-15T18:25:30;12.60;;;6.90;;
64459;SDS011;50828;53.756;21.140;2023-04-15T18:30:39;15.70;;;7.90;;
64459;SDS011;50828;53.756;21.140;2023-04-15T18:35:47;13.70;;;6.90;;
64459;SDS011;50828;53.756;21.140;2023-04-15T18:40:56;10.20;;;6.60;;
64459;SDS011;50828;53.756;21.140;2023-04-15T18:46:05;12.90;;;7.60;;
64459;SDS011;50828;53.756;21.140;2023-04-15T18:51:15;16.60;;;8.90;;
64459;SDS011;50828;53.756;21.140;2023-04-15T18:56:24;15.10;;;8.10;;
64459;SDS011;50828;53.756;21.140;2023-04-15T19:01:33;15.40;;;8.40;;
64459;SDS011;50828;53.756;21.140;2023-04-15T19:06:40;16.60;;;8.80;;
64459;SDS011;50828;53.756;21.140;2023-04-15T19:11:49;14.90;;;8.60;;
64459;SDS011;50828;53.756;21.140;2023-04-15T19:16:56;19.30;;;10.00;;
64459;SDS011;50828;53.756;21.140;2023-04-15T19:22:04;15.10;;;9.30;;
64459;SDS011;50828;53.756;21.140;2023-04-15T19:27:13;15.60;;;8.80;;
64459;SDS011;50828;53.756;21.140;2023-04-15T19:32:22;17.90;;;9.60;;
64459;SDS011;50828;53.756;21.140;2023-04-15T19:37:31;15.00;;;8.90;;
64459;SDS011;50828;53.756;21.140;2023-04-15T19:42:39;15.70;;;8.70;;
64459;SDS011;50828;53.756;21.140;2023-04-15T19:47:46;15.70;;;9.30;;
64459;SDS011;50828;53.756;21.140;2023-04-15T19:52:56;14.90;;;8.40;;
64459;SDS011;50828;53.756;21.140;2023-04-15T19:58:04;13.70;;;8.40;;
64459;SDS011;50828;53.756;21.140;2023-04-15T20:03:12;13.80;;;8.10;;
64459;SDS011;50828;53.756;21.140;2023-04-15T20:08:21;14.50;;;8.60;;
64459;SDS011;50828;53.756;21.140;2023-04-15T20:13:30;13.80;;;8.50;;
64459;SDS011;50828;53.756;21.140;2023-04-15T20:18:38;13.80;;;9.30;;
64459;SDS011;50828;53.756;21.140;2023-04-15T20:23:47;14.50;;;8.80;;
64459;SDS011;50828;53.756;21.140;2023-04-15T20:28:57;15.70;;;8.40;;
64459;SDS011;50828;53.756;21.140;2023-04-15T20:34:06;13.80;;;8.30;;
64459;SDS011;50828;53.756;21.140;2023-04-15T20:39:15;20.90;;;9.60;;
64459;SDS011;50828;53.756;21.140;2023-04-15T20:44:23;72.20;;;21.40;;
64459;SDS011;50828;53.756;21.140;2023-04-15T20:49:33;28.90;;;11.50;;
64459;SDS011;50828;53.756;21.140;2023-04-15T20:54:41;13.40;;;8.10;;
64459;SDS011;50828;53.756;21.140;2023-04-15T20:59:49;13.30;;;8.60;;
64459;SDS011;50828;53.756;21.140;2023-04-15T21:04:57;13.70;;;8.20;;
64459;SDS011;50828;53.756;21.140;2023-04-15T21:10:05;13.40;;;8.40;;
64459;SDS011;50828;53.756;21.140;2023-04-15T21:15:13;14.20;;;8.80;;
64459;SDS011;50828;53.756;21.140;2023-04-15T21:20:22;15.00;;;9.10;;
64459;SDS011;50828;53.756;21.140;2023-04-15T21:25:31;13.80;;;9.40;;
64459;SDS011;50828;53.756;21.140;2023-04-15T21:30:40;12.50;;;8.20;;
64459;SDS011;50828;53.756;21.140;2023-04-15T21:35:49;13.40;;;8.60;;
64459;SDS011;50828;53.756;21.140;2023-04-15T21:40:58;13.90;;;8.10;;
64459;SDS011;50828;53.756;21.140;2023-04-15T21:46:10;16.80;;;9.00;;
64459;SDS011;50828;53.756;21.140;2023-04-15T21:51:27;15.40;;;8.40;;
64459;SDS011;50828;53.756;21.140;2023-04-15T21:56:35;15.00;;;8.90;;
64459;SDS011;50828;53.756;21.140;2023-04-15T22:01:43;11.10;;;7.80;;
64459;SDS011;50828;53.756;21.140;2023-04-15T22:06:52;18.10;;;9.40;;
64459;SDS011;50828;53.756;21.140;2023-04-15T22:12:05;14.60;;;9.30;;
64459;SDS011;50828;53.756;21.140;2023-04-15T22:17:13;18.30;;;9.20;;
64459;SDS011;50828;53.756;21.140;2023-04-15T22:22:21;13.40;;;8.80;;
64459;SDS011;50828;53.756;21.140;2023-04-15T22:27:46;13.40;;;8.70;;
64459;SDS011;50828;53.756;21.140;2023-04-15T22:32:53;17.30;;;9.40;;
64459;SDS011;50828;53.756;21.140;2023-04-15T22:38:03;17.20;;;9.20;;
64459;SDS011;50828;53.756;21.140;2023-04-15T22:43:11;17.80;;;9.10;;
64459;SDS011;50828;53.756;21.140;2023-04-15T22:48:18;17.60;;;10.00;;
64459;SDS011;50828;53.756;21.140;2023-04-15T22:53:25;17.70;;;10.20;;
64459;SDS011;50828;53.756;21.140;2023-04-15T22:58:33;14.40;;;9.40;;
64459;SDS011;50828;53.756;21.140;2023-04-15T23:03:41;18.50;;;10.10;;
64459;SDS011;50828;53.756;21.140;2023-04-15T23:09:11;15.00;;;9.50;;
64459;SDS011;50828;53.756;21.140;2023-04-15T23:14:19;15.00;;;9.20;;
64459;SDS011;50828;53.756;21.140;2023-04-15T23:19:29;19.30;;;10.30;;
64459;SDS011;50828;53.756;21.140;2023-04-15T23:24:38;13.90;;;9.30;;
64459;SDS011;50828;53.756;21.140;2023-04-15T23:29:46;13.20;;;8.70;;
64459;SDS011;50828;53.756;21.140;2023-04-15T23:34:54;15.30;;;8.50;;
64459;SDS011;50828;53.756;21.140;2023-04-15T23:40:03;16.20;;;8.40;;
64459;SDS011;50828;53.756;21.140;2023-04-15T23:45:13;14.50;;;8.10;;
64459;SDS011;50828;53.756;21.140;2023-04-15T23:50:20;13.30;;;8.30;;
64459;SDS011;50828;53.756;21.140;2023-04-15T23:55:28;12.30;;;8.10;;
